Time;durP1;ratioP1;P1;durP2;ratioP2;P2;SDS_P1;SDS_P2;PMS_P1;PMS_P2;Temp;Humidity;BMP_temperature;BMP_pressure;BME280_temperature;BME280_humidity;BME280_pressure;Samples;Min_cycle;Max_cycle;Signal;HPM_P1;HPM_P2
2022/01/27 00:05:38;;;;;;;6.80;2.75;;;;;;;-0.20;54.02;94478.75;5023599;28;20055;-73
2022/01/27 00:12:59;;;;;;;4.55;2.65;;;;;;;-0.00;53.12;94460.09;5029009;28;20051;-72
2022/01/27 00:15:30;;;;;;;5.05;3.20;;;;;;;0.11;52.85;94446.94;5021805;28;20045;-73
2022/01/27 00:18:00;;;;;;;8.48;4.72;;;;;;;0.23;52.87;94460.78;5027719;28;20065;-72
2022/01/27 00:20:25;;;;;;;5.22;4.07;;;;;;;0.26;52.70;94473.41;5021656;28;20033;-73
2022/01/27 00:22:51;;;;;;;6.00;3.78;;;;;;;0.16;52.64;94454.09;5032832;28;20071;-73
2022/01/27 00:25:16;;;;;;;3.03;2.30;;;;;;;0.20;52.48;94457.88;5026356;28;20033;-73
2022/01/27 00:27:42;;;;;;;5.68;2.92;;;;;;;0.07;52.65;94458.09;5026183;28;20025;-73
2022/01/27 00:30:08;;;;;;;3.70;2.83;;;;;;;0.08;52.97;94470.16;5022207;28;20040;-72
2022/01/27 00:32:34;;;;;;;7.13;3.85;;;;;;;-0.05;53.05;94442.47;5030521;28;20437;-73
2022/01/27 00:35:01;;;;;;;4.25;2.78;;;;;;;0.07;52.33;94442.41;5020517;28;20072;-73
2022/01/27 00:37:27;;;;;;;4.38;2.58;;;;;;;0.06;52.80;94435.59;5026255;28;20041;-73
2022/01/27 00:39:52;;;;;;;5.45;3.10;;;;;;;0.22;52.68;94448.75;5027075;28;20041;-73
2022/01/27 00:42:18;;;;;;;5.70;2.95;;;;;;;0.45;52.28;94468.78;5021811;28;20128;-72
2022/01/27 00:44:43;;;;;;;4.75;3.65;;;;;;;0.58;51.71;94465.91;5021776;28;20509;-73
2022/01/27 00:47:09;;;;;;;6.82;2.80;;;;;;;0.62;51.40;94464.41;5020150;28;20505;-73
2022/01/27 00:49:36;;;;;;;3.50;2.25;;;;;;;0.26;51.21;94438.59;5019861;28;20069;-72
2022/01/27 00:52:03;;;;;;;1.95;1.73;;;;;;;0.22;52.00;94458.41;5023474;28;20052;-72
2022/01/27 00:54:30;;;;;;;3.80;2.80;;;;;;;0.19;52.13;94458.88;5021988;28;20033;-73
2022/01/27 01:02:00;;;;;;;4.05;2.55;;;;;;;-0.03;52.24;94437.00;5013223;28;20044;-73
2022/01/27 01:04:31;;;;;;;3.15;1.77;;;;;;;-0.07;52.56;94458.38;5024950;28;20044;-72
2022/01/27 01:06:57;;;;;;;3.95;2.80;;;;;;;-0.02;52.53;94451.66;5028582;28;20029;-73
2022/01/27 01:32:51;;;;;;;3.45;2.33;;;;;;;-0.19;52.98;94439.28;5017499;28;20045;-72
2022/01/27 01:35:26;;;;;;;2.70;2.10;;;;;;;-0.12;52.90;94447.81;5025756;28;20128;-73
2022/01/27 01:37:52;;;;;;;2.38;2.17;;;;;;;-0.21;52.82;94451.03;5026686;28;20369;-73
2022/01/27 01:40:18;;;;;;;2.65;2.00;;;;;;;-0.29;53.30;94457.41;5024578;28;20221;-72
2022/01/27 01:42:44;;;;;;;4.13;3.22;;;;;;;-0.48;53.79;94450.69;5024234;28;20031;-73
2022/01/27 01:45:17;;;;;;;5.05;2.70;;;;;;;-0.49;54.18;94449.13;5022261;28;20737;-72
2022/01/27 01:47:43;;;;;;;3.67;2.20;;;;;;;-0.42;53.88;94452.41;5026749;28;20615;-73
2022/01/27 01:50:10;;;;;;;7.60;2.35;;;;;;;-0.46;53.94;94430.38;5028112;28;20041;-72
2022/01/27 01:52:36;;;;;;;4.50;2.95;;;;;;;-0.28;53.70;94437.28;5022589;28;20041;-73
2022/01/27 01:55:04;;;;;;;1.70;1.35;;;;;;;-0.33;53.71;94427.50;5020568;28;20546;-72
2022/01/27 01:57:30;;;;;;;4.15;1.98;;;;;;;-0.63;54.14;94408.59;5026676;28;20144;-73
2022/01/27 01:59:55;;;;;;;3.00;1.70;;;;;;;-0.56;54.33;94414.47;5026276;28;20470;-72
2022/01/27 02:02:21;;;;;;;4.57;2.22;;;;;;;-0.38;53.87;94410.91;5016488;28;20092;-72
2022/01/27 02:04:46;;;;;;;4.15;1.70;;;;;;;-0.72;54.64;94415.97;5023915;28;20049;-72
2022/01/27 02:07:42;;;;;;;3.17;1.73;;;;;;;-0.71;54.83;94407.13;5018672;28;20577;-73
2022/01/27 02:10:31;;;;;;;;;;;;;;;-0.58;54.82;94421.78;5034004;28;20065;-73
2022/01/27 02:18:26;;;;;;;1.38;1.27;;;;;;;-0.74;55.15;94412.00;5020486;28;20052;-73
2022/01/27 02:20:51;;;;;;;1.42;1.30;;;;;;;-0.70;54.59;94392.22;5024950;28;20346;-72
2022/01/27 02:23:17;;;;;;;2.45;1.52;;;;;;;-0.58;53.99;94398.25;5021881;28;20127;-72
2022/01/27 02:25:42;;;;;;;9.70;4.18;;;;;;;-0.48;53.11;94395.06;5013813;28;20627;-72
2022/01/27 02:28:08;;;;;;;2.83;2.15;;;;;;;-0.63;52.52;94382.47;5022699;28;20188;-73
2022/01/27 02:30:33;;;;;;;1.77;1.35;;;;;;;-0.62;52.58;94397.09;5026179;28;20199;-72
2022/01/27 02:32:59;;;;;;;2.22;1.70;;;;;;;-0.66;53.40;94382.91;5019367;28;20528;-72
2022/01/27 02:35:28;;;;;;;1.60;1.50;;;;;;;-0.60;52.95;94410.75;5021297;28;20045;-72
2022/01/27 02:37:54;;;;;;;1.70;1.55;;;;;;;-0.60;53.13;94401.09;5023730;28;20087;-73
2022/01/27 02:40:42;;;;;;;1.50;1.40;;;;;;;-0.53;52.83;94403.56;5017377;28;20072;-72
2022/01/27 02:43:09;;;;;;;2.38;1.95;;;;;;;-0.75;53.61;94374.63;5027047;28;20021;-72
2022/01/27 02:46:15;;;;;;;1.60;1.50;;;;;;;-0.21;53.36;94404.75;5023116;28;20915;-72
2022/01/27 02:48:40;;;;;;;1.67;1.55;;;;;;;-0.13;52.32;94396.53;5021135;28;20114;-73
2022/01/27 02:51:06;;;;;;;2.60;1.58;;;;;;;-0.23;52.06;94390.31;5024361;28;20128;-73
2022/01/27 02:53:31;;;;;;;2.70;1.40;;;;;;;-0.61;52.38;94349.06;5023609;28;20033;-73
2022/01/27 02:55:56;;;;;;;2.25;1.80;;;;;;;-0.37;53.21;94415.13;5019565;28;20086;-72
2022/01/27 02:58:22;;;;;;;2.03;1.92;;;;;;;-0.44;53.25;94406.63;5020536;28;20080;-73
2022/01/27 03:00:47;;;;;;;1.42;1.33;;;;;;;-0.50;54.01;94424.03;5020966;28;20032;-73
2022/01/27 03:03:12;;;;;;;1.80;1.70;;;;;;;-0.64;54.20;94407.00;5021221;28;20081;-72
2022/01/27 03:05:38;;;;;;;1.83;1.60;;;;;;;-0.57;54.14;94424.13;5016166;28;20591;-72
2022/01/27 03:08:04;;;;;;;2.20;1.40;;;;;;;-0.46;53.84;94413.91;5019451;28;20435;-73
2022/01/27 03:10:34;;;;;;;1.90;1.70;;;;;;;-0.78;54.23;94396.00;5020658;28;20558;-72
2022/01/27 03:13:00;;;;;;;1.65;1.55;;;;;;;-0.58;54.53;94427.00;5027133;28;20160;-72
2022/01/27 03:15:28;;;;;;;2.03;1.50;;;;;;;-0.65;54.62;94421.09;5020568;28;20119;-72
2022/01/27 03:17:54;;;;;;;1.65;1.55;;;;;;;-0.70;54.53;94403.47;5028787;28;20570;-72
2022/01/27 03:20:19;;;;;;;2.08;1.90;;;;;;;-0.68;54.87;94411.88;5022675;28;20041;-73
2022/01/27 03:22:45;;;;;;;1.80;1.70;;;;;;;-0.78;54.81;94384.75;5020031;28;20048;-73
2022/01/27 03:25:11;;;;;;;1.75;1.65;;;;;;;-0.68;55.04;94418.94;5018885;28;20493;-73
2022/01/27 03:27:36;;;;;;;2.50;1.75;;;;;;;-0.50;54.58;94408.34;5024418;28;20031;-73
2022/01/27 03:30:03;;;;;;;1.92;1.58;;;;;;;-0.46;54.00;94408.66;5027579;28;20120;-73
2022/01/27 03:32:29;;;;;;;1.60;1.50;;;;;;;-0.52;54.36;94405.16;5033030;28;20402;-72
2022/01/27 03:34:54;;;;;;;2.42;1.52;;;;;;;-0.50;54.41;94413.56;5026724;28;20055;-72
2022/01/27 03:37:19;;;;;;;1.67;1.58;;;;;;;-0.43;54.24;94418.69;5027761;28;20363;-73
2022/01/27 03:39:45;;;;;;;1.67;1.52;;;;;;;-0.55;54.39;94392.56;5025420;28;20405;-72
2022/01/27 03:42:11;;;;;;;1.60;1.50;;;;;;;-0.58;53.79;94395.66;5025069;28;20045;-71
2022/01/27 03:44:37;;;;;;;1.65;1.55;;;;;;;-0.65;54.06;94421.88;5020765;28;20879;-72
2022/01/27 03:47:03;;;;;;;1.80;1.70;;;;;;;-0.63;54.29;94419.06;5034324;28;20671;-72
2022/01/27 03:49:28;;;;;;;1.40;1.35;;;;;;;-0.81;54.59;94411.31;5030855;28;20025;-72
2022/01/27 03:51:59;;;;;;;1.80;1.70;;;;;;;-0.76;54.72;94424.47;5029993;28;20085;-72
2022/01/27 03:54:24;;;;;;;2.10;1.70;;;;;;;-0.67;54.51;94423.13;5027996;28;20064;-72
2022/01/27 03:56:49;;;;;;;1.67;1.58;;;;;;;-0.68;54.87;94414.47;5022937;28;20048;-73
2022/01/27 03:59:15;;;;;;;2.42;1.75;;;;;;;-0.77;55.03;94428.13;5031386;28;20076;-72
2022/01/27 04:01:40;;;;;;;1.77;1.40;;;;;;;-0.83;55.28;94423.81;5031099;28;20549;-72
2022/01/27 04:04:06;;;;;;;1.83;1.52;;;;;;;-0.85;55.87;94433.69;5028463;28;20485;-72
2022/01/27 04:06:38;;;;;;;2.60;1.75;;;;;;;-0.70;55.58;94434.81;5021247;28;20033;-73
2022/01/27 04:09:06;;;;;;;1.38;1.27;;;;;;;-0.59;55.35;94428.81;5030378;28;20072;-72
2022/01/27 04:11:32;;;;;;;1.50;1.30;;;;;;;-0.57;55.36;94436.41;5024590;28;20041;-72
2022/01/27 04:13:57;;;;;;;1.60;1.50;;;;;;;-0.63;55.31;94422.44;5024249;28;20478;-71
2022/01/27 04:16:23;;;;;;;2.58;2.35;;;;;;;-0.39;55.03;94431.06;5023872;28;20051;-73
2022/01/27 04:18:48;;;;;;;3.10;2.00;;;;;;;-0.46;55.05;94419.94;5029011;28;20116;-73
2022/01/27 04:21:15;;;;;;;3.35;1.75;;;;;;;-0.38;54.97;94432.63;5027743;28;20120;-72
2022/01/27 04:23:41;;;;;;;1.60;1.50;;;;;;;-0.33;54.91;94435.34;5025924;28;20037;-73
2022/01/27 04:26:07;;;;;;;2.15;1.98;;;;;;;-0.59;55.24;94400.06;5031189;28;20041;-72
2022/01/27 04:28:35;;;;;;;3.55;2.38;;;;;;;-0.45;55.37;94444.25;5026518;28;20572;-71
2022/01/27 04:31:04;;;;;;;3.30;2.03;;;;;;;-0.63;55.58;94440.72;5028078;28;20276;-70
2022/01/27 04:33:32;;;;;;;3.20;1.90;;;;;;;-0.62;55.74;94436.28;5025185;28;20062;-73
2022/01/27 04:36:01;;;;;;;2.40;2.20;;;;;;;-0.58;55.81;94448.66;5028507;28;20041;-72
2022/01/27 04:38:36;;;;;;;1.63;1.52;;;;;;;-0.80;56.06;94426.75;5026761;28;20044;-72
2022/01/27 04:41:15;;;;;;;1.98;1.75;;;;;;;-0.88;56.48;94418.47;5031588;28;20042;-71
2022/01/27 04:43:49;;;;;;;3.63;2.00;;;;;;;-0.75;56.58;94442.56;5024842;28;20048;-70
2022/01/27 04:46:32;;;;;;;1.70;1.60;;;;;;;-0.70;56.87;94455.72;5028183;28;20140;-72
2022/01/27 04:49:01;;;;;;;1.92;1.83;;;;;;;-0.56;56.22;94448.44;5022759;28;20685;-71
2022/01/27 04:51:28;;;;;;;4.22;2.03;;;;;;;-0.65;56.29;94462.88;5026483;28;20037;-71
2022/01/27 04:54:03;;;;;;;2.50;2.03;;;;;;;-0.62;56.10;94444.94;5025468;28;20075;-72
2022/01/27 04:56:31;;;;;;;2.03;1.83;;;;;;;-0.72;56.66;94456.97;5030854;28;20036;-71
2022/01/27 04:59:02;;;;;;;3.38;2.15;;;;;;;-0.85;57.38;94463.22;5031315;28;20320;-71
2022/01/27 05:01:36;;;;;;;2.30;2.10;;;;;;;-0.85;57.68;94462.41;5024939;28;20036;-71
2022/01/27 05:04:08;;;;;;;21.83;11.05;;;;;;;-0.95;57.91;94432.44;5026592;28;20032;-71
2022/01/27 05:06:33;;;;;;;14.07;8.38;;;;;;;-0.83;57.76;94466.41;5028222;28;20029;-71
2022/01/27 05:08:59;;;;;;;3.45;2.83;;;;;;;-1.46;58.16;94391.28;5023075;28;20037;-71
2022/01/27 05:11:35;;;;;;;15.18;7.53;;;;;;;-0.68;57.56;94474.56;5026880;28;20045;-73
2022/01/27 05:16:32;;;;;;;24.52;10.82;;;;;;;-0.76;57.00;94445.38;5025819;28;20528;-69
2022/01/27 05:18:57;;;;;;;9.23;5.88;;;;;;;-0.55;57.10;94484.00;5027171;28;20032;-70
2022/01/27 05:21:23;;;;;;;10.98;8.90;;;;;;;-0.66;57.05;94482.19;5026682;28;20043;-71
2022/01/27 05:23:48;;;;;;;5.95;4.25;;;;;;;-0.65;57.51;94486.41;5023631;28;20042;-71
2022/01/27 05:26:14;;;;;;;5.38;4.20;;;;;;;-0.65;57.38;94481.16;5025279;28;20037;-71
2022/01/27 05:28:39;;;;;;;3.38;3.13;;;;;;;-0.77;57.97;94483.75;5022380;28;20135;-70
2022/01/27 05:31:05;;;;;;;6.00;4.10;;;;;;;-0.99;58.19;94469.69;5028279;28;20029;-71
2022/01/27 05:33:32;;;;;;;3.42;2.83;;;;;;;-0.79;58.43;94490.25;5025082;28;20063;-71
2022/01/27 05:35:57;;;;;;;2.90;2.60;;;;;;;-0.75;58.40;94491.38;5027010;28;20045;-71
2022/01/27 05:38:39;;;;;;;2.70;2.50;;;;;;;-0.97;58.75;94481.47;5023586;28;20042;-72
2022/01/27 05:41:20;;;;;;;4.13;3.42;;;;;;;-1.11;59.26;94474.88;5020190;28;20034;-70
2022/01/27 05:43:45;;;;;;;3.88;2.60;;;;;;;-1.22;59.32;94462.59;5022393;28;20095;-70
2022/01/27 05:46:11;;;;;;;4.85;2.28;;;;;;;-1.10;59.73;94491.31;5026011;28;20029;-71
2022/01/27 05:48:36;;;;;;;4.82;2.78;;;;;;;-1.18;60.05;94484.63;5024084;28;20163;-70
2022/01/27 05:51:03;;;;;;;3.88;2.47;;;;;;;-1.34;59.78;94455.75;5024002;28;20054;-71
2022/01/27 05:53:30;;;;;;;5.03;2.97;;;;;;;-1.14;60.31;94496.22;5022582;28;20072;-71
2022/01/27 05:55:59;;;;;;;4.93;2.47;;;;;;;-1.16;60.04;94482.56;5025375;28;20567;-70
2022/01/27 05:58:25;;;;;;;2.85;2.15;;;;;;;-1.06;59.97;94493.25;5019978;28;20084;-71
2022/01/27 06:00:51;;;;;;;3.45;2.42;;;;;;;-1.04;60.34;94496.47;5018604;28;20048;-71
2022/01/27 06:03:16;;;;;;;3.55;2.92;;;;;;;-1.06;60.42;94493.25;5023421;28;20041;-70
2022/01/27 06:05:41;;;;;;;3.22;2.85;;;;;;;-0.84;59.52;94500.56;5021174;28;20502;-70
2022/01/27 06:08:07;;;;;;;3.10;2.45;;;;;;;-0.77;59.40;94514.31;5024044;28;20049;-73
2022/01/27 06:10:32;;;;;;;3.63;2.50;;;;;;;-0.78;59.48;94502.28;5020720;28;20045;-72
2022/01/27 06:12:58;;;;;;;2.67;2.40;;;;;;;-0.74;59.11;94485.94;5019295;28;20122;-71
2022/01/27 06:15:26;;;;;;;3.83;3.47;;;;;;;-0.62;58.99;94512.06;5024667;28;20041;-70
2022/01/27 06:17:52;;;;;;;2.45;2.25;;;;;;;-0.57;58.87;94514.78;5033852;28;20083;-71
2022/01/27 06:20:19;;;;;;;3.15;2.85;;;;;;;-0.53;58.75;94508.88;5022338;28;20567;-71
2022/01/27 06:22:45;;;;;;;2.92;2.55;;;;;;;-0.41;58.46;94516.72;5039675;28;20128;-70
2022/01/27 06:25:11;;;;;;;3.58;3.15;;;;;;;-0.48;58.50;94515.25;5024109;28;20035;-71
2022/01/27 06:27:37;;;;;;;3.28;2.72;;;;;;;-0.54;58.54;94509.13;5020915;28;20025;-70
2022/01/27 06:30:05;;;;;;;5.70;3.03;;;;;;;-0.44;58.55;94525.03;5022036;28;20769;-71
2022/01/27 06:32:32;;;;;;;3.40;2.67;;;;;;;-0.15;58.10;94531.97;5026839;28;20046;-71
2022/01/27 06:34:57;;;;;;;3.45;2.67;;;;;;;-0.04;57.35;94527.72;5021212;28;20124;-71
2022/01/27 06:37:23;;;;;;;3.05;2.75;;;;;;;-0.34;56.98;94501.75;5018519;28;20033;-71
2022/01/27 06:39:48;;;;;;;3.40;2.65;;;;;;;-0.27;57.30;94538.19;5019530;28;20036;-70
2022/01/27 06:42:14;;;;;;;4.70;2.60;;;;;;;-0.10;57.27;94539.91;5024043;28;20098;-71
2022/01/27 06:44:39;;;;;;;4.05;3.05;;;;;;;-0.22;57.12;94520.81;5017452;28;20050;-70
2022/01/27 06:47:05;;;;;;;4.70;3.30;;;;;;;-0.38;57.04;94505.81;5026252;28;20852;-71
2022/01/27 06:49:30;;;;;;;5.20;3.30;;;;;;;-0.23;57.37;94524.44;5020312;28;20033;-71
2022/01/27 06:51:56;;;;;;;3.55;2.88;;;;;;;-0.22;57.30;94526.03;5021693;28;20449;-72
2022/01/27 06:54:21;;;;;;;5.97;3.50;;;;;;;-0.10;57.22;94518.19;5024016;28;20044;-70
2022/01/27 06:56:47;;;;;;;6.10;3.60;;;;;;;0.03;56.96;94507.47;5018580;28;20742;-72
2022/01/27 06:59:12;;;;;;;7.78;3.55;;;;;;;0.10;56.20;94518.63;5022553;28;20206;-72
2022/01/27 07:01:39;;;;;;;4.10;2.97;;;;;;;-0.08;55.81;94482.13;5020465;28;20063;-71
2022/01/27 07:04:05;;;;;;;5.03;3.33;;;;;;;-0.12;56.18;94505.34;5021707;28;20029;-71
2022/01/27 07:06:32;;;;;;;4.63;3.95;;;;;;;0.08;56.02;94530.31;5025439;28;20039;-71
2022/01/27 07:08:57;;;;;;;5.10;3.22;;;;;;;-0.20;56.39;94508.31;5021172;28;20044;-71
2022/01/27 07:11:23;;;;;;;4.80;3.85;;;;;;;-0.04;56.35;94519.88;5021196;28;20069;-71
2022/01/27 07:13:48;;;;;;;5.50;3.90;;;;;;;0.07;56.36;94518.25;5022944;28;20612;-70
2022/01/27 07:16:13;;;;;;;3.78;3.30;;;;;;;-0.00;56.29;94530.69;5025275;28;20025;-70
2022/01/27 07:18:39;;;;;;;6.82;3.90;;;;;;;0.12;56.19;94508.72;5033696;28;20040;-71
2022/01/27 07:21:05;;;;;;;3.70;3.28;;;;;;;0.45;55.32;94530.81;5023514;28;20047;-71
2022/01/27 07:23:30;;;;;;;4.57;4.00;;;;;;;0.44;55.13;94524.78;5023781;28;20350;-71
2022/01/27 07:25:56;;;;;;;5.43;4.18;;;;;;;0.33;55.24;94528.22;5021582;28;20052;-70
2022/01/27 07:28:21;;;;;;;6.07;3.55;;;;;;;0.31;55.30;94525.84;5021653;28;20405;-71
2022/01/27 07:30:46;;;;;;;4.35;3.10;;;;;;;0.37;55.24;94537.19;5024801;28;20041;-72
2022/01/27 07:33:12;;;;;;;7.65;4.22;;;;;;;0.08;55.84;94536.34;5015507;28;20457;-71
2022/01/27 07:35:37;;;;;;;4.07;2.97;;;;;;;-0.04;56.39;94522.47;5020583;28;20095;-70
2022/01/27 07:38:04;;;;;;;4.07;3.05;;;;;;;0.10;56.61;94538.75;5027196;28;20034;-71
2022/01/27 07:40:30;;;;;;;4.00;3.00;;;;;;;0.20;56.63;94531.13;5020145;28;20041;-73
2022/01/27 07:42:55;;;;;;;3.55;3.08;;;;;;;0.22;56.52;94548.16;5020534;28;20029;-71
2022/01/27 07:45:21;;;;;;;5.93;3.95;;;;;;;0.03;56.76;94545.91;5021480;28;20037;-71
2022/01/27 07:47:46;;;;;;;3.33;3.03;;;;;;;0.06;56.96;94527.94;5028305;28;20497;-71
2022/01/27 07:50:11;;;;;;;4.75;3.97;;;;;;;0.33;56.28;94539.50;5021453;28;20044;-71
2022/01/27 07:52:37;;;;;;;7.50;4.18;;;;;;;0.47;56.20;94545.25;5020090;28;20524;-71
2022/01/27 07:55:03;;;;;;;6.93;3.88;;;;;;;0.49;56.02;94553.69;5020435;28;20108;-71
2022/01/27 07:57:28;;;;;;;10.52;4.53;;;;;;;0.05;56.73;94536.81;5023816;28;20408;-71
2022/01/27 07:59:54;;;;;;;6.63;4.35;;;;;;;0.25;56.87;94554.75;5016730;28;20048;-71
2022/01/27 08:02:19;;;;;;;7.05;5.00;;;;;;;0.25;57.01;94557.38;5023786;28;20553;-71
2022/01/27 08:04:46;;;;;;;11.60;6.55;;;;;;;0.37;57.08;94539.81;5020484;28;20071;-71
2022/01/27 08:07:12;;;;;;;12.32;6.53;;;;;;;0.47;56.98;94545.25;5023033;28;20497;-71
2022/01/27 08:09:37;;;;;;;7.68;4.55;;;;;;;0.23;57.03;94522.78;5023093;28;20048;-70
2022/01/27 08:12:03;;;;;;;11.57;5.57;;;;;;;0.65;56.78;94550.31;5020635;28;20040;-73
2022/01/27 08:14:28;;;;;;;12.43;7.68;;;;;;;0.28;56.86;94533.34;5026760;28;20071;-73
2022/01/27 08:16:54;;;;;;;13.98;8.55;;;;;;;0.17;57.35;94531.56;5022142;28;20040;-73
2022/01/27 08:19:19;;;;;;;11.63;6.32;;;;;;;0.30;57.43;94560.88;5031752;28;20045;-73
2022/01/27 08:21:45;;;;;;;13.07;8.20;;;;;;;0.30;57.59;94560.88;5020960;28;20036;-73
2022/01/27 08:24:11;;;;;;;13.40;7.30;;;;;;;0.17;57.75;94545.44;5027479;28;20033;-74
2022/01/27 08:26:43;;;;;;;11.15;7.15;;;;;;;0.29;57.87;94563.72;5026124;28;20048;-74
2022/01/27 08:29:16;;;;;;;9.23;5.72;;;;;;;0.10;58.08;94538.75;5025873;28;20540;-73
2022/01/27 08:32:02;;;;;;;8.40;5.82;;;;;;;0.32;58.00;94565.88;5027051;28;20051;-73
2022/01/27 08:34:37;;;;;;;10.23;6.32;;;;;;;0.14;58.44;94558.19;5037580;28;20421;-74
2022/01/27 08:37:10;;;;;;;15.30;9.07;;;;;;;0.22;58.31;94574.31;5023347;28;20405;-73
2022/01/27 08:39:37;;;;;;;11.07;6.65;;;;;;;0.10;58.83;94562.28;5026463;28;20033;-73
2022/01/27 08:42:04;;;;;;;12.68;6.40;;;;;;;0.08;58.64;94543.41;5026363;28;20061;-73
2022/01/27 08:44:30;;;;;;;10.07;6.95;;;;;;;0.12;58.48;94544.53;5026615;28;20370;-74
2022/01/27 08:46:55;;;;;;;9.13;6.38;;;;;;;0.31;58.70;94569.50;5026069;28;20040;-74
2022/01/27 08:49:24;;;;;;;10.57;5.93;;;;;;;0.47;58.33;94587.13;5018331;28;20116;-73
2022/01/27 08:51:49;;;;;;;9.85;5.90;;;;;;;0.39;57.94;94556.09;5024893;28;20709;-73
2022/01/27 08:54:14;;;;;;;11.18;6.85;;;;;;;-0.87;57.78;94347.72;5023877;28;20056;-73
2022/01/27 08:56:40;;;;;;;10.65;5.88;;;;;;;0.40;57.69;94544.56;5026154;28;20240;-74
2022/01/27 08:59:05;;;;;;;12.10;6.55;;;;;;;0.54;57.39;94566.06;5028138;28;20053;-74
2022/01/27 09:01:31;;;;;;;7.53;5.85;;;;;;;0.61;56.87;94569.31;5021214;28;20409;-74
2022/01/27 09:03:57;;;;;;;6.22;4.78;;;;;;;0.50;57.00;94573.56;5018138;28;20044;-73
2022/01/27 09:06:22;;;;;;;14.23;7.63;;;;;;;0.63;56.93;94573.31;5026691;28;20390;-73
2022/01/27 09:08:50;;;;;;;8.25;6.20;;;;;;;0.70;56.93;94573.97;5023753;28;20094;-73
2022/01/27 09:11:18;;;;;;;8.27;5.93;;;;;;;0.50;56.59;94555.25;5025761;28;20334;-73
2022/01/27 09:13:44;;;;;;;6.50;4.38;;;;;;;0.73;56.70;94576.13;5028385;28;20036;-73
2022/01/27 09:16:10;;;;;;;9.73;5.80;;;;;;;0.46;56.86;94569.81;5022269;28;20353;-74
2022/01/27 09:18:36;;;;;;;9.63;5.47;;;;;;;0.66;56.67;94580.69;5028625;28;20452;-73
2022/01/27 09:21:07;;;;;;;7.03;4.85;;;;;;;0.76;56.44;94575.66;5026748;28;20044;-73
2022/01/27 09:23:33;;;;;;;11.32;6.78;;;;;;;0.76;56.39;94551.28;5025941;28;20576;-73
2022/01/27 09:26:04;;;;;;;10.80;6.55;;;;;;;0.68;56.38;94572.63;5022500;28;20112;-74
2022/01/27 09:28:30;;;;;;;11.63;6.97;;;;;;;0.85;56.44;94567.41;5018593;28;20048;-75
2022/01/27 09:30:56;;;;;;;9.85;6.60;;;;;;;0.99;55.73;94580.00;5030300;28;20028;-71
2022/01/27 09:33:22;;;;;;;11.52;6.50;;;;;;;0.95;55.23;94547.44;5027691;28;20044;-71
2022/01/27 09:35:47;;;;;;;13.98;7.88;;;;;;;0.99;55.31;94563.47;5023604;28;20424;-71
2022/01/27 09:38:13;;;;;;;10.75;6.70;;;;;;;0.73;55.86;94549.94;5025138;28;20148;-71
2022/01/27 09:40:38;;;;;;;13.05;6.65;;;;;;;0.71;55.86;94552.00;5027669;28;20061;-71
2022/01/27 09:43:05;;;;;;;7.80;5.20;;;;;;;0.62;56.40;94545.53;5025219;28;20025;-71
2022/01/27 09:45:35;;;;;;;8.05;5.93;;;;;;;0.77;56.35;94550.28;5023048;28;20017;-72
2022/01/27 09:48:11;;;;;;;15.60;9.52;;;;;;;0.73;57.23;94544.72;5021881;28;20132;-72
2022/01/27 09:50:48;;;;;;;14.73;9.48;;;;;;;1.09;56.76;94547.94;5033119;28;20105;-70
2022/01/27 09:53:15;;;;;;;13.27;6.88;;;;;;;1.10;55.82;94544.31;5022827;28;20041;-71
2022/01/27 09:55:41;;;;;;;9.45;5.80;;;;;;;0.98;55.67;94540.97;5026840;28;20573;-71
2022/01/27 09:58:07;;;;;;;16.00;8.07;;;;;;;0.89;55.86;94532.66;5027895;28;20037;-71
2022/01/27 10:00:33;;;;;;;9.73;6.32;;;;;;;0.80;56.16;94510.50;5022016;28;20037;-73
2022/01/27 10:03:09;;;;;;;17.58;8.57;;;;;;;1.13;56.09;94543.84;5032399;28;20071;-71
2022/01/27 10:05:36;;;;;;;13.90;7.40;;;;;;;1.07;55.82;94540.34;5028555;28;20041;-71
2022/01/27 10:08:10;;;;;;;16.42;8.30;;;;;;;1.14;55.88;94542.78;5023280;28;20045;-71
2022/01/27 10:10:42;;;;;;;16.50;8.10;;;;;;;1.48;55.50;94546.22;5021734;28;20106;-71
2022/01/27 10:13:10;;;;;;;14.57;7.60;;;;;;;1.39;55.00;94550.28;5027626;28;20148;-71
2022/01/27 10:15:42;;;;;;;14.15;8.60;;;;;;;1.32;54.98;94552.28;5024463;28;20043;-71
2022/01/27 10:18:18;;;;;;;15.40;7.65;;;;;;;1.15;55.06;94547.81;5025411;28;20115;-70
2022/01/27 10:20:51;;;;;;;14.02;7.20;;;;;;;1.16;55.05;94543.38;5023226;28;20036;-71
2022/01/27 10:23:21;;;;;;;10.60;6.30;;;;;;;1.11;55.07;94543.28;5025807;28;20030;-71
2022/01/27 10:25:56;;;;;;;10.20;7.28;;;;;;;0.96;55.15;94517.63;5024428;28;20041;-71
2022/01/27 10:28:45;;;;;;;;;;;;;;;0.91;54.74;94545.53;5027620;28;20041;-71
2022/01/27 10:31:19;;;;;;;14.13;7.47;;;;;;;0.85;55.36;94538.63;5023780;28;20193;-71
2022/01/27 10:33:51;;;;;;;14.52;7.68;;;;;;;1.15;55.45;94534.72;5023385;28;20017;-71
2022/01/27 10:36:29;;;;;;;15.05;7.45;;;;;;;1.27;54.05;94534.66;5023733;28;20072;-72
2022/01/27 10:39:05;;;;;;;11.32;7.22;;;;;;;1.00;53.70;94528.41;5026085;28;20509;-71
2022/01/27 10:41:34;;;;;;;10.00;6.38;;;;;;;1.03;53.50;94504.38;5021137;28;20508;-73
2022/01/27 10:44:11;;;;;;;11.70;6.82;;;;;;;1.14;53.56;94524.44;5028839;28;20061;-71
2022/01/27 10:46:43;;;;;;;12.05;6.63;;;;;;;0.97;53.37;94513.97;5024937;28;20041;-73
2022/01/27 10:49:13;;;;;;;14.10;7.00;;;;;;;0.97;53.19;94521.03;5023859;28;20836;-71
2022/01/27 10:51:51;;;;;;;17.75;9.43;;;;;;;0.97;53.90;94511.34;5029041;28;20298;-71
2022/01/27 10:54:32;;;;;;;15.43;8.57;;;;;;;1.23;54.16;94510.72;5024248;28;20543;-72
2022/01/27 10:57:02;;;;;;;12.13;8.00;;;;;;;1.13;53.83;94486.97;5024977;28;20111;-73
2022/01/27 10:59:28;;;;;;;12.90;7.32;;;;;;;1.23;53.70;94504.69;5024037;28;20040;-72
2022/01/27 11:01:55;;;;;;;10.25;6.63;;;;;;;1.46;53.20;94506.38;5024975;28;20033;-71
2022/01/27 11:04:31;;;;;;;9.45;7.07;;;;;;;1.53;52.31;94502.53;5031760;28;20059;-72
2022/01/27 11:06:59;;;;;;;12.35;7.40;;;;;;;1.43;51.82;94481.41;5023405;28;20041;-71
2022/01/27 11:09:27;;;;;;;14.00;7.50;;;;;;;1.54;51.70;94506.75;5026608;28;20049;-72
2022/01/27 11:11:56;;;;;;;11.48;7.20;;;;;;;1.73;51.46;94496.78;5022309;28;20045;-72
2022/01/27 11:14:24;;;;;;;11.90;5.78;;;;;;;1.79;50.89;94498.47;5024647;28;20405;-71
2022/01/27 11:16:51;;;;;;;9.38;6.00;;;;;;;1.94;50.23;94496.06;5029397;28;20302;-70
2022/01/27 11:22:00;;;;;;;10.18;6.00;;;;;;;1.79;49.90;94463.56;5022178;28;20133;-73
2022/01/27 11:24:43;;;;;;;7.43;4.95;;;;;;;1.73;49.70;94469.78;5025991;28;20052;-71
2022/01/27 11:27:12;;;;;;;9.15;6.07;;;;;;;1.64;49.99;94472.81;5022249;28;20064;-72
2022/01/27 11:29:46;;;;;;;9.02;5.15;;;;;;;1.73;50.03;94475.03;5029072;28;20037;-71
2022/01/27 11:32:27;;;;;;;7.93;4.75;;;;;;;1.90;49.58;94481.06;5024551;28;20040;-72
2022/01/27 11:34:55;;;;;;;9.73;5.03;;;;;;;2.09;49.64;94484.97;5027395;28;20029;-71
2022/01/27 11:37:35;;;;;;;8.93;5.05;;;;;;;1.98;49.50;94457.03;5026114;28;20071;-71
2022/01/27 11:40:05;;;;;;;9.77;4.93;;;;;;;2.06;49.53;94474.97;5025869;28;20116;-70
2022/01/27 11:42:40;;;;;;;8.63;4.28;;;;;;;1.95;49.46;94470.66;5024539;28;20025;-71
2022/01/27 11:45:20;;;;;;;9.98;6.32;;;;;;;1.85;49.00;94476.53;5023915;28;20041;-70
2022/01/27 11:47:49;;;;;;;7.40;5.28;;;;;;;1.93;49.45;94480.56;5027104;28;20800;-70
2022/01/27 11:50:35;;;;;;;9.88;4.55;;;;;;;1.96;49.02;94477.47;5024515;28;20606;-71
2022/01/27 11:53:05;;;;;;;6.25;3.90;;;;;;;1.96;49.19;94480.09;5029753;28;20034;-72
2022/01/27 11:55:34;;;;;;;8.57;4.93;;;;;;;1.97;48.72;94476.41;5042438;28;20461;-70
2022/01/27 11:58:17;;;;;;;8.25;5.30;;;;;;;2.15;48.70;94468.28;5024655;28;20029;-72
2022/01/27 12:01:03;;;;;;;7.65;4.45;;;;;;;1.96;47.37;94446.78;5036338;28;20056;-72
2022/01/27 12:03:28;;;;;;;;;;;;;;;2.06;47.80;94473.13;5022419;28;20138;-71
2022/01/27 12:06:13;;;;;;;4.82;3.17;;;;;;;1.97;47.09;94476.41;5018675;28;20431;-71
2022/01/27 12:08:38;;;;;;;7.20;3.97;;;;;;;1.78;47.24;94459.34;5016609;28;20041;-71
2022/01/27 12:11:07;;;;;;;9.38;5.00;;;;;;;1.59;47.37;94446.53;5015833;28;20431;-70
2022/01/27 12:13:40;;;;;;;9.80;4.53;;;;;;;1.67;47.68;94477.56;5019785;28;20064;-72
2022/01/27 12:19:02;;;;;;;9.73;4.82;;;;;;;1.85;48.17;94473.09;5025678;28;20032;-72
2022/01/27 12:21:28;;;;;;;7.05;4.05;;;;;;;1.87;48.10;94460.53;5037474;28;20052;-71
2022/01/27 12:27:03;;;;;;;9.73;6.40;;;;;;;1.83;48.12;94454.19;5020429;28;20037;-71
2022/01/27 12:29:31;;;;;;;15.10;6.05;;;;;;;1.74;48.66;94451.19;5018925;28;20029;-72
2022/01/27 12:32:03;;;;;;;9.60;5.65;;;;;;;1.82;48.06;94452.59;5020188;28;20045;-71
2022/01/27 12:34:33;;;;;;;15.90;7.80;;;;;;;1.72;48.18;94452.47;5023089;28;20044;-72
2022/01/27 12:37:10;;;;;;;9.80;5.88;;;;;;;1.74;47.77;94445.16;5020943;28;20541;-71